sensor_id;sensor_type;location;lat;lon;timestamp;pressure;altitude;pressure_sealevel;temperature;humidity
56241;BME280;42155;53.096;23.226;2023-04-15T00:01:12;99575.41;;;10.53;72.71
56241;BME280;42155;53.096;23.226;2023-04-15T00:03:12;99544.31;;;10.34;72.51
56241;BME280;42155;53.096;23.226;2023-04-15T00:05:13;99558.47;;;10.44;72.52
56241;BME280;42155;53.096;23.226;2023-04-15T00:07:13;99576.78;;;10.47;72.59
56241;BME280;42155;53.096;23.226;2023-04-15T00:09:14;99569.81;;;10.46;72.76
56241;BME280;42155;53.096;23.226;2023-04-15T00:11:14;99567.81;;;10.38;72.35
56241;BME280;42155;53.096;23.226;2023-04-15T00:13:14;99560.69;;;10.39;72.36
56241;BME280;42155;53.096;23.226;2023-04-15T00:15:15;99578.59;;;10.47;72.55
56241;BME280;42155;53.096;23.226;2023-04-15T00:17:15;99575.13;;;10.46;72.83
56241;BME280;42155;53.096;23.226;2023-04-15T00:19:15;99570.06;;;10.43;72.46
56241;BME280;42155;53.096;23.226;2023-04-15T00:21:16;99566.56;;;10.42;72.49
56241;BME280;42155;53.096;23.226;2023-04-15T00:23:16;99563.34;;;10.39;72.32
56241;BME280;42155;53.096;23.226;2023-04-15T00:25:16;99571.28;;;10.39;73.07
56241;BME280;42155;53.096;23.226;2023-04-15T00:27:17;99542.72;;;10.22;72.60
56241;BME280;42155;53.096;23.226;2023-04-15T00:29:17;99562.50;;;10.38;73.00
56241;BME280;42155;53.096;23.226;2023-04-15T00:31:17;99493.78;;;9.84;72.81
56241;BME280;42155;53.096;23.226;2023-04-15T00:33:18;99557.97;;;10.29;72.96
56241;BME280;42155;53.096;23.226;2023-04-15T00:35:18;99557.16;;;10.29;72.55
56241;BME280;42155;53.096;23.226;2023-04-15T00:37:19;99559.25;;;10.35;73.03
56241;BME280;42155;53.096;23.226;2023-04-15T00:39:19;99516.25;;;10.10;72.99
56241;BME280;42155;53.096;23.226;2023-04-15T00:41:20;99554.50;;;10.29;72.98
56241;BME280;42155;53.096;23.226;2023-04-15T00:43:20;99566.66;;;10.31;73.25
56241;BME280;42155;53.096;23.226;2023-04-15T00:45:21;99552.97;;;10.26;72.92
56241;BME280;42155;53.096;23.226;2023-04-15T00:47:22;99557.16;;;10.29;73.48
56241;BME280;42155;53.096;23.226;2023-04-15T00:49:22;99557.97;;;10.29;72.99
56241;BME280;42155;53.096;23.226;2023-04-15T00:51:22;99545.13;;;10.25;73.33
56241;BME280;42155;53.096;23.226;2023-04-15T00:53:23;99545.22;;;10.23;73.11
56241;BME280;42155;53.096;23.226;2023-04-15T00:55:23;99559.09;;;10.27;72.78
56241;BME280;42155;53.096;23.226;2023-04-15T00:57:23;99562.94;;;10.23;72.84
56241;BME280;42155;53.096;23.226;2023-04-15T00:59:24;99480.06;;;9.79;73.14
56241;BME280;42155;53.096;23.226;2023-04-15T01:01:25;99549.09;;;10.19;73.02
56241;BME280;42155;53.096;23.226;2023-04-15T01:03:25;99559.09;;;10.27;72.99
56241;BME280;42155;53.096;23.226;2023-04-15T01:05:26;99571.63;;;10.25;73.17
56241;BME280;42155;53.096;23.226;2023-04-15T01:07:27;99560.41;;;10.21;73.09
56241;BME280;42155;53.096;23.226;2023-04-15T01:09:27;99566.59;;;10.22;73.44
56241;BME280;42155;53.096;23.226;2023-04-15T01:11:28;99584.41;;;10.19;73.22
56241;BME280;42155;53.096;23.226;2023-04-15T01:13:29;99566.59;;;10.22;73.22
56241;BME280;42155;53.096;23.226;2023-04-15T01:15:30;99577.19;;;10.22;73.31
56241;BME280;42155;53.096;23.226;2023-04-15T01:17:30;99565.72;;;10.21;73.34
56241;BME280;42155;53.096;23.226;2023-04-15T01:19:31;99578.88;;;10.23;73.15
56241;BME280;42155;53.096;23.226;2023-04-15T01:21:31;99576.22;;;10.23;72.82
56241;BME280;42155;53.096;23.226;2023-04-15T01:23:35;99578.88;;;10.23;73.11
56241;BME280;42155;53.096;23.226;2023-04-15T01:25:35;99583.44;;;10.20;73.16
56241;BME280;42155;53.096;23.226;2023-04-15T01:27:38;99497.72;;;9.68;73.24
56241;BME280;42155;53.096;23.226;2023-04-15T01:29:38;99569.03;;;10.13;73.14
56241;BME280;42155;53.096;23.226;2023-04-15T01:31:39;99586.38;;;10.17;73.30
56241;BME280;42155;53.096;23.226;2023-04-15T01:33:41;99515.50;;;9.78;73.29
56241;BME280;42155;53.096;23.226;2023-04-15T01:35:41;99566.84;;;10.18;72.92
56241;BME280;42155;53.096;23.226;2023-04-15T01:37:42;99574.78;;;10.18;73.17
56241;BME280;42155;53.096;23.226;2023-04-15T01:39:42;99559.56;;;10.20;73.37
56241;BME280;42155;53.096;23.226;2023-04-15T01:41:42;99572.72;;;10.22;73.40
56241;BME280;42155;53.096;23.226;2023-04-15T01:43:43;99575.38;;;10.22;72.94
56241;BME280;42155;53.096;23.226;2023-04-15T01:45:43;99567.91;;;10.16;73.36
56241;BME280;42155;53.096;23.226;2023-04-15T01:47:43;99581.31;;;10.14;73.25
56241;BME280;42155;53.096;23.226;2023-04-15T01:49:44;99578.41;;;10.17;73.76
56241;BME280;42155;53.096;23.226;2023-04-15T01:51:44;99509.22;;;9.79;73.56
56241;BME280;42155;53.096;23.226;2023-04-15T01:53:44;99577.03;;;10.23;73.35
56241;BME280;42155;53.096;23.226;2023-04-15T01:55:45;99573.88;;;10.08;73.38
56241;BME280;42155;53.096;23.226;2023-04-15T01:57:45;99581.84;;;10.08;73.66
56241;BME280;42155;53.096;23.226;2023-04-15T01:59:45;99584.34;;;10.10;73.92
56241;BME280;42155;53.096;23.226;2023-04-15T02:01:46;99581.56;;;10.11;73.61
56241;BME280;42155;53.096;23.226;2023-04-15T02:03:46;99577.09;;;10.12;73.88
56241;BME280;42155;53.096;23.226;2023-04-15T02:05:46;99581.56;;;10.11;73.61
56241;BME280;42155;53.096;23.226;2023-04-15T02:07:47;99573.50;;;10.13;73.71
56241;BME280;42155;53.096;23.226;2023-04-15T02:09:47;99567.84;;;10.06;73.86
56241;BME280;42155;53.096;23.226;2023-04-15T02:11:47;99573.16;;;10.06;73.85
56241;BME280;42155;53.096;23.226;2023-04-15T02:13:48;99565.16;;;9.97;74.04
56241;BME280;42155;53.096;23.226;2023-04-15T02:15:49;99575.63;;;9.98;74.54
56241;BME280;42155;53.096;23.226;2023-04-15T02:17:49;99575.88;;;9.95;74.52
56241;BME280;42155;53.096;23.226;2023-04-15T02:19:50;99548.00;;;9.80;74.61
56241;BME280;42155;53.096;23.226;2023-04-15T02:21:50;99566.91;;;9.86;75.07
56241;BME280;42155;53.096;23.226;2023-04-15T02:23:50;99581.44;;;9.92;75.30
56241;BME280;42155;53.096;23.226;2023-04-15T02:25:51;99569.84;;;9.93;74.61
56241;BME280;42155;53.096;23.226;2023-04-15T02:27:51;99561.91;;;9.93;74.63
56241;BME280;42155;53.096;23.226;2023-04-15T02:29:51;99556.16;;;9.88;74.86
56241;BME280;42155;53.096;23.226;2023-04-15T02:31:52;99487.03;;;9.38;74.84
56241;BME280;42155;53.096;23.226;2023-04-15T02:33:52;99577.44;;;9.98;74.75
56241;BME280;42155;53.096;23.226;2023-04-15T02:35:52;99563.34;;;9.97;74.79
56241;BME280;42155;53.096;23.226;2023-04-15T02:37:53;99550.84;;;9.88;74.96
56241;BME280;42155;53.096;23.226;2023-04-15T02:39:53;99570.06;;;9.80;74.70
56241;BME280;42155;53.096;23.226;2023-04-15T02:41:53;99547.81;;;9.72;75.10
56241;BME280;42155;53.096;23.226;2023-04-15T02:43:54;99564.50;;;9.83;75.05
56241;BME280;42155;53.096;23.226;2023-04-15T02:45:54;99561.97;;;9.82;74.89
56241;BME280;42155;53.096;23.226;2023-04-15T02:47:54;99567.03;;;9.85;75.20
56241;BME280;42155;53.096;23.226;2023-04-15T02:49:55;99561.06;;;9.92;74.85
56241;BME280;42155;53.096;23.226;2023-04-15T02:51:55;99517.78;;;9.61;75.06
56241;BME280;42155;53.096;23.226;2023-04-15T02:53:56;99557.66;;;9.81;75.38
56241;BME280;42155;53.096;23.226;2023-04-15T02:55:56;99582.28;;;9.92;74.51
56241;BME280;42155;53.096;23.226;2023-04-15T02:57:56;99556.94;;;9.79;74.77
56241;BME280;42155;53.096;23.226;2023-04-15T02:59:57;99512.75;;;9.47;74.73
56241;BME280;42155;53.096;23.226;2023-04-15T03:01:57;99573.41;;;9.82;74.83
56241;BME280;42155;53.096;23.226;2023-04-15T03:03:57;99582.94;;;9.85;75.18
56241;BME280;42155;53.096;23.226;2023-04-15T03:05:58;99572.06;;;9.88;75.09
56241;BME280;42155;53.096;23.226;2023-04-15T03:07:58;99574.47;;;9.91;74.93
56241;BME280;42155;53.096;23.226;2023-04-15T03:09:58;99575.69;;;9.87;74.63
56241;BME280;42155;53.096;23.226;2023-04-15T03:11:59;99545.81;;;9.64;74.45
56241;BME280;42155;53.096;23.226;2023-04-15T03:13:59;99576.66;;;9.86;74.54
56241;BME280;42155;53.096;23.226;2023-04-15T03:16:00;99569.94;;;9.82;74.73
56241;BME280;42155;53.096;23.226;2023-04-15T03:18:00;99556.22;;;9.77;74.47
56241;BME280;42155;53.096;23.226;2023-04-15T03:20:01;99580.00;;;9.88;74.91
56241;BME280;42155;53.096;23.226;2023-04-15T03:22:02;99576.66;;;9.86;74.92
56241;BME280;42155;53.096;23.226;2023-04-15T03:24:02;99587.00;;;9.89;74.14
56241;BME280;42155;53.096;23.226;2023-04-15T03:26:03;99577.13;;;9.91;74.28
56241;BME280;42155;53.096;23.226;2023-04-15T03:28:03;99582.28;;;9.92;74.10
56241;BME280;42155;53.096;23.226;2023-04-15T03:30:05;99589.63;;;9.89;74.28
56241;BME280;42155;53.096;23.226;2023-04-15T03:32:05;99580.28;;;9.85;74.75
56241;BME280;42155;53.096;23.226;2023-04-15T03:34:06;99579.19;;;9.87;74.29
56241;BME280;42155;53.096;23.226;2023-04-15T03:36:06;99578.94;;;9.90;74.60
56241;BME280;42155;53.096;23.226;2023-04-15T03:38:06;99568.88;;;9.73;74.11
56241;BME280;42155;53.096;23.226;2023-04-15T03:40:07;99551.69;;;9.67;74.23
56241;BME280;42155;53.096;23.226;2023-04-15T03:42:08;99581.97;;;9.86;74.41
56241;BME280;42155;53.096;23.226;2023-04-15T03:44:08;99581.97;;;9.86;74.56
56241;BME280;42155;53.096;23.226;2023-04-15T03:46:08;99584.63;;;9.86;74.13
56241;BME280;42155;53.096;23.226;2023-04-15T03:48:09;99589.78;;;9.87;73.99
56241;BME280;42155;53.096;23.226;2023-04-15T03:50:09;99575.38;;;9.80;74.41
56241;BME280;42155;53.096;23.226;2023-04-15T03:52:09;99596.44;;;9.82;74.25
56241;BME280;42155;53.096;23.226;2023-04-15T03:54:10;99576.91;;;9.83;74.14
56241;BME280;42155;53.096;23.226;2023-04-15T03:56:10;99526.97;;;9.46;74.34
56241;BME280;42155;53.096;23.226;2023-04-15T03:58:11;99568.19;;;9.71;74.50
56241;BME280;42155;53.096;23.226;2023-04-15T04:00:11;99587.50;;;9.83;74.74
56241;BME280;42155;53.096;23.226;2023-04-15T04:02:11;99582.13;;;9.73;74.54
56241;BME280;42155;53.096;23.226;2023-04-15T04:04:12;99589.69;;;9.78;74.38
56241;BME280;42155;53.096;23.226;2023-04-15T04:06:12;99591.06;;;9.72;74.67
56241;BME280;42155;53.096;23.226;2023-04-15T04:08:12;99596.47;;;9.70;75.10
56241;BME280;42155;53.096;23.226;2023-04-15T04:10:13;99597.19;;;9.73;75.20
56241;BME280;42155;53.096;23.226;2023-04-15T04:12:13;99595.25;;;9.75;74.89
56241;BME280;42155;53.096;23.226;2023-04-15T04:14:13;99599.59;;;9.76;74.34
56241;BME280;42155;53.096;23.226;2023-04-15T04:16:14;99594.41;;;9.74;74.45
56241;BME280;42155;53.096;23.226;2023-04-15T04:18:14;99595.97;;;9.77;74.48
56241;BME280;42155;53.096;23.226;2023-04-15T04:20:15;99570.75;;;9.61;74.60
56241;BME280;42155;53.096;23.226;2023-04-15T04:22:15;99591.13;;;9.82;74.87
56241;BME280;42155;53.096;23.226;2023-04-15T04:24:15;99590.88;;;9.85;74.38
56241;BME280;42155;53.096;23.226;2023-04-15T04:26:16;99581.56;;;9.90;74.37
56241;BME280;42155;53.096;23.226;2023-04-15T04:28:16;99591.06;;;9.93;74.41
56241;BME280;42155;53.096;23.226;2023-04-15T04:30:16;99597.78;;;9.97;73.93
56241;BME280;42155;53.096;23.226;2023-04-15T04:32:17;99589.84;;;9.97;74.54
56241;BME280;42155;53.096;23.226;2023-04-15T04:34:17;99576.38;;;9.89;74.71
56241;BME280;42155;53.096;23.226;2023-04-15T04:36:17;99567.28;;;9.82;74.34
56241;BME280;42155;53.096;23.226;2023-04-15T04:38:18;99600.44;;;9.97;74.46
56241;BME280;42155;53.096;23.226;2023-04-15T04:40:18;99587.94;;;9.99;74.15
56241;BME280;42155;53.096;23.226;2023-04-15T04:42:18;99518.72;;;9.60;74.49
56241;BME280;42155;53.096;23.226;2023-04-15T04:44:19;99592.63;;;9.95;74.45
56241;BME280;42155;53.096;23.226;2023-04-15T04:46:19;99588.69;;;9.90;75.53
56241;BME280;42155;53.096;23.226;2023-04-15T04:48:19;99593.25;;;9.88;74.86
56241;BME280;42155;53.096;23.226;2023-04-15T04:50:20;99575.63;;;9.77;75.36
56241;BME280;42155;53.096;23.226;2023-04-15T04:52:20;99585.59;;;9.85;75.39
56241;BME280;42155;53.096;23.226;2023-04-15T04:54:20;99585.59;;;9.85;75.60
56241;BME280;42155;53.096;23.226;2023-04-15T04:56:21;99592.50;;;9.76;75.75
56241;BME280;42155;53.096;23.226;2023-04-15T04:58:21;99565.91;;;9.66;75.81
56241;BME280;42155;53.096;23.226;2023-04-15T05:00:21;99593.78;;;9.82;75.98
56241;BME280;42155;53.096;23.226;2023-04-15T05:02:22;99597.19;;;9.73;75.92
56241;BME280;42155;53.096;23.226;2023-04-15T05:04:22;99586.91;;;9.79;76.21
56241;BME280;42155;53.096;23.226;2023-04-15T05:06:22;99603.53;;;9.81;76.07
56241;BME280;42155;53.096;23.226;2023-04-15T05:08:23;99604.56;;;9.69;75.89
56241;BME280;42155;53.096;23.226;2023-04-15T05:10:23;99600.22;;;9.68;76.18
56241;BME280;42155;53.096;23.226;2023-04-15T05:12:23;99611.19;;;9.63;76.44
56241;BME280;42155;53.096;23.226;2023-04-15T05:14:23;99596.75;;;9.56;76.50
56241;BME280;42155;53.096;23.226;2023-04-15T05:16:24;99597.88;;;9.54;76.35
56241;BME280;42155;53.096;23.226;2023-04-15T05:18:24;99614.09;;;9.60;76.45
56241;BME280;42155;53.096;23.226;2023-04-15T05:20:24;99605.91;;;9.63;76.38
56241;BME280;42155;53.096;23.226;2023-04-15T05:22:25;99608.88;;;9.70;75.71
56241;BME280;42155;53.096;23.226;2023-04-15T05:24:25;99609.63;;;9.61;76.11
56241;BME280;42155;53.096;23.226;2023-04-15T05:26:26;99599.38;;;9.67;76.06
56241;BME280;42155;53.096;23.226;2023-04-15T05:28:26;99594.00;;;9.58;75.90
56241;BME280;42155;53.096;23.226;2023-04-15T05:30:26;99612.13;;;9.74;76.04
56241;BME280;42155;53.096;23.226;2023-04-15T05:32:27;99605.53;;;9.68;75.81
56241;BME280;42155;53.096;23.226;2023-04-15T05:34:27;99607.56;;;9.76;75.28
56241;BME280;42155;53.096;23.226;2023-04-15T05:36:27;99584.00;;;9.61;75.40
56241;BME280;42155;53.096;23.226;2023-04-15T05:38:28;99600.38;;;9.66;75.02
56241;BME280;42155;53.096;23.226;2023-04-15T05:40:29;99608.63;;;9.73;75.15
56241;BME280;42155;53.096;23.226;2023-04-15T05:42:29;99598.41;;;9.68;75.02
56241;BME280;42155;53.096;23.226;2023-04-15T05:44:30;99596.00;;;9.65;75.07
56241;BME280;42155;53.096;23.226;2023-04-15T05:46:30;99601.38;;;9.75;75.16
56241;BME280;42155;53.096;23.226;2023-04-15T05:48:31;99610.19;;;9.76;75.34
56241;BME280;42155;53.096;23.226;2023-04-15T05:50:31;99603.34;;;9.73;75.51
56241;BME280;42155;53.096;23.226;2023-04-15T05:52:31;99604.16;;;9.74;75.04
56241;BME280;42155;53.096;23.226;2023-04-15T05:54:32;99610.78;;;9.79;74.94
56241;BME280;42155;53.096;23.226;2023-04-15T05:56:32;99615.97;;;9.81;74.84
56241;BME280;42155;53.096;23.226;2023-04-15T05:58:32;99578.19;;;9.67;75.19
56241;BME280;42155;53.096;23.226;2023-04-15T06:00:33;99600.31;;;9.78;75.05
56241;BME280;42155;53.096;23.226;2023-04-15T06:02:33;99581.53;;;9.69;75.15
56241;BME280;42155;53.096;23.226;2023-04-15T06:04:33;99584.31;;;9.68;74.90
56241;BME280;42155;53.096;23.226;2023-04-15T06:06:34;99600.31;;;9.78;74.57
56241;BME280;42155;53.096;23.226;2023-04-15T06:08:34;99594.16;;;9.77;74.47
56241;BME280;42155;53.096;23.226;2023-04-15T06:10:35;99550.81;;;9.46;74.76
56241;BME280;42155;53.096;23.226;2023-04-15T06:12:35;99608.00;;;9.81;74.82
56241;BME280;42155;53.096;23.226;2023-04-15T06:14:35;99607.19;;;9.80;74.54
56241;BME280;42155;53.096;23.226;2023-04-15T06:16:36;99617.78;;;9.80;74.24
56241;BME280;42155;53.096;23.226;2023-04-15T06:18:36;99603.16;;;9.86;73.99
56241;BME280;42155;53.096;23.226;2023-04-15T06:20:37;99557.13;;;9.66;74.39
56241;BME280;42155;53.096;23.226;2023-04-15T06:22:37;99600.44;;;9.97;73.92
56241;BME280;42155;53.096;23.226;2023-04-15T06:24:38;99590.56;;;9.99;73.92
56241;BME280;42155;53.096;23.226;2023-04-15T06:26:38;99601.88;;;10.01;74.12
56241;BME280;42155;53.096;23.226;2023-04-15T06:28:38;99578.66;;;9.93;73.45
56241;BME280;42155;53.096;23.226;2023-04-15T06:30:38;99604.59;;;10.11;73.43
56241;BME280;42155;53.096;23.226;2023-04-15T06:32:39;99581.19;;;9.95;73.18
56241;BME280;42155;53.096;23.226;2023-04-15T06:34:39;99596.56;;;10.01;73.12
56241;BME280;42155;53.096;23.226;2023-04-15T06:36:39;99615.59;;;10.06;73.87
56241;BME280;42155;53.096;23.226;2023-04-15T06:38:40;99609.44;;;10.06;73.46
56241;BME280;42155;53.096;23.226;2023-04-15T06:40:40;99604.72;;;10.09;73.58
56241;BME280;42155;53.096;23.226;2023-04-15T06:42:40;99616.94;;;10.01;73.05
56241;BME280;42155;53.096;23.226;2023-04-15T06:44:41;99600.38;;;9.87;73.19
56241;BME280;42155;53.096;23.226;2023-04-15T06:46:41;99627.22;;;9.94;73.56
56241;BME280;42155;53.096;23.226;2023-04-15T06:48:42;99625.53;;;9.93;73.24
56241;BME280;42155;53.096;23.226;2023-04-15T06:50:42;99618.78;;;9.89;73.27
56241;BME280;42155;53.096;23.226;2023-04-15T06:52:43;99616.09;;;10.00;73.48
56241;BME280;42155;53.096;23.226;2023-04-15T06:54:43;99626.47;;;10.03;73.07
56241;BME280;42155;53.096;23.226;2023-04-15T06:56:43;99627.88;;;10.07;73.00
56241;BME280;42155;53.096;23.226;2023-04-15T06:58:44;99633.16;;;10.07;72.72
56241;BME280;42155;53.096;23.226;2023-04-15T07:00:44;99633.69;;;10.01;72.90
56241;BME280;42155;53.096;23.226;2023-04-15T07:02:45;99644.28;;;10.01;72.75
56241;BME280;42155;53.096;23.226;2023-04-15T07:04:45;99621.66;;;9.97;72.99
56241;BME280;42155;53.096;23.226;2023-04-15T07:06:45;99625.75;;;10.01;72.58
56241;BME280;42155;53.096;23.226;2023-04-15T07:08:46;99643.28;;;10.13;72.54
56241;BME280;42155;53.096;23.226;2023-04-15T07:10:46;99641.31;;;10.15;72.79
56241;BME280;42155;53.096;23.226;2023-04-15T07:12:47;99616.09;;;10.00;72.62
56241;BME280;42155;53.096;23.226;2023-04-15T07:14:47;99644.81;;;10.16;72.74
56241;BME280;42155;53.096;23.226;2023-04-15T07:16:48;99631.69;;;10.14;72.70
56241;BME280;42155;53.096;23.226;2023-04-15T07:18:48;99633.50;;;10.14;72.47
56241;BME280;42155;53.096;23.226;2023-04-15T07:20:49;99632.88;;;10.22;72.66
56241;BME280;42155;53.096;23.226;2023-04-15T07:22:49;99655.88;;;10.32;72.39
56241;BME280;42155;53.096;23.226;2023-04-15T07:24:49;99651.53;;;10.31;71.69
56241;BME280;42155;53.096;23.226;2023-04-15T07:26:50;99646.09;;;10.33;71.83
56241;BME280;42155;53.096;23.226;2023-04-15T07:28:50;99647.38;;;10.38;71.72
56241;BME280;42155;53.096;23.226;2023-04-15T07:30:50;99652.00;;;10.36;71.72
56241;BME280;42155;53.096;23.226;2023-04-15T07:32:51;99640.34;;;10.28;71.86
56241;BME280;42155;53.096;23.226;2023-04-15T07:34:51;99650.69;;;10.31;72.16
56241;BME280;42155;53.096;23.226;2023-04-15T07:36:51;99646.78;;;10.35;71.94
56241;BME280;42155;53.096;23.226;2023-04-15T07:38:51;99641.69;;;10.43;71.61
56241;BME280;42155;53.096;23.226;2023-04-15T07:40:52;99645.19;;;10.43;71.97
56241;BME280;42155;53.096;23.226;2023-04-15T07:42:52;99616.59;;;10.26;72.01
56241;BME280;42155;53.096;23.226;2023-04-15T07:44:53;99649.66;;;10.43;71.92
56241;BME280;42155;53.096;23.226;2023-04-15T07:46:53;99628.13;;;10.36;71.93
56241;BME280;42155;53.096;23.226;2023-04-15T07:48:53;99618.44;;;10.14;72.38
56241;BME280;42155;53.096;23.226;2023-04-15T07:50:54;99651.59;;;10.41;72.13
56241;BME280;42155;53.096;23.226;2023-04-15T07:52:54;99647.97;;;10.42;72.42
56241;BME280;42155;53.096;23.226;2023-04-15T07:54:54;99636.06;;;10.36;72.29
56241;BME280;42155;53.096;23.226;2023-04-15T07:56:55;99656.91;;;10.41;72.20
56241;BME280;42155;53.096;23.226;2023-04-15T07:58:55;99650.16;;;10.37;72.36
56241;BME280;42155;53.096;23.226;2023-04-15T08:00:55;99653.28;;;10.42;71.90
56241;BME280;42155;53.096;23.226;2023-04-15T08:02:56;99623.03;;;10.12;71.86
56241;BME280;42155;53.096;23.226;2023-04-15T08:04:56;99654.06;;;10.33;72.56
56241;BME280;42155;53.096;23.226;2023-04-15T08:06:56;99661.88;;;10.34;72.51
56241;BME280;42155;53.096;23.226;2023-04-15T08:08:57;99653.91;;;10.34;72.44
56241;BME280;42155;53.096;23.226;2023-04-15T08:10:57;99656.50;;;10.25;72.50
56241;BME280;42155;53.096;23.226;2023-04-15T08:12:58;99651.56;;;10.20;72.67
56241;BME280;42155;53.096;23.226;2023-04-15T08:14:58;99662.06;;;10.22;72.21
56241;BME280;42155;53.096;23.226;2023-04-15T08:16:59;99660.97;;;10.24;72.09
56241;BME280;42155;53.096;23.226;2023-04-15T08:18:59;99670.50;;;10.27;72.64
56241;BME280;42155;53.096;23.226;2023-04-15T08:20:59;99646.03;;;10.12;72.72
56241;BME280;42155;53.096;23.226;2023-04-15T08:23:00;99665.66;;;10.20;72.60
56241;BME280;42155;53.096;23.226;2023-04-15T08:25:00;99662.53;;;10.27;72.78
56241;BME280;42155;53.096;23.226;2023-04-15T08:27:01;99669.28;;;10.31;72.61
56241;BME280;42155;53.096;23.226;2023-04-15T08:29:02;99686.13;;;10.30;72.74
56241;BME280;42155;53.096;23.226;2023-04-15T08:31:02;99675.28;;;10.33;73.45
56241;BME280;42155;53.096;23.226;2023-04-15T08:33:02;99670.22;;;10.30;72.91
56241;BME280;42155;53.096;23.226;2023-04-15T08:35:03;99676.94;;;10.34;73.43
56241;BME280;42155;53.096;23.226;2023-04-15T08:37:03;99689.75;;;10.29;73.25
56241;BME280;42155;53.096;23.226;2023-04-15T08:39:04;99682.78;;;10.28;73.62
56241;BME280;42155;53.096;23.226;2023-04-15T08:41:16;99684.31;;;10.30;73.54
56241;BME280;42155;53.096;23.226;2023-04-15T08:43:22;99679.28;;;10.27;73.06
56241;BME280;42155;53.096;23.226;2023-04-15T08:45:23;99683.84;;;10.25;73.63
56241;BME280;42155;53.096;23.226;2023-04-15T08:47:25;99584.00;;;9.61;73.66
56241;BME280;42155;53.096;23.226;2023-04-15T08:49:29;99684.69;;;10.26;73.52
56241;BME280;42155;53.096;23.226;2023-04-15T08:51:30;99665.66;;;10.20;73.59
56241;BME280;42155;53.096;23.226;2023-04-15T08:53:31;99682.25;;;10.34;73.49
56241;BME280;42155;53.096;23.226;2023-04-15T08:55:33;99695.28;;;10.37;73.75
56241;BME280;42155;53.096;23.226;2023-04-15T08:57:35;99662.97;;;10.32;73.60
56241;BME280;42155;53.096;23.226;2023-04-15T08:59:36;99639.13;;;10.20;73.49
56241;BME280;42155;53.096;23.226;2023-04-15T09:01:37;99685.69;;;10.45;73.56
56241;BME280;42155;53.096;23.226;2023-04-15T09:03:38;99674.25;;;10.45;73.68
56241;BME280;42155;53.096;23.226;2023-04-15T09:05:38;99659.59;;;10.30;73.63
56241;BME280;42155;53.096;23.226;2023-04-15T09:07:39;99683.16;;;10.44;73.21
56241;BME280;42155;53.096;23.226;2023-04-15T09:09:39;99678.13;;;10.41;73.26
56241;BME280;42155;53.096;23.226;2023-04-15T09:11:40;99685.19;;;10.31;73.81
56241;BME280;42155;53.096;23.226;2023-04-15T09:13:40;99699.53;;;10.28;74.25
56241;BME280;42155;53.096;23.226;2023-04-15T09:15:41;99676.63;;;10.27;75.01
56241;BME280;42155;53.096;23.226;2023-04-15T09:17:42;99690.72;;;10.28;74.95
56241;BME280;42155;53.096;23.226;2023-04-15T09:19:43;99697.97;;;10.26;74.75
56241;BME280;42155;53.096;23.226;2023-04-15T09:21:46;99683.25;;;10.22;75.26
56241;BME280;42155;53.096;23.226;2023-04-15T09:23:55;99686.88;;;10.20;75.06
56241;BME280;42155;53.096;23.226;2023-04-15T09:25:56;99690.72;;;10.16;75.46
56241;BME280;42155;53.096;23.226;2023-04-15T09:28:00;99692.84;;;10.02;76.49
56241;BME280;42155;53.096;23.226;2023-04-15T09:30:00;99695.56;;;9.90;76.34
56241;BME280;42155;53.096;23.226;2023-04-15T09:32:12;99697.09;;;9.93;76.27
56241;BME280;42155;53.096;23.226;2023-04-15T09:34:12;99708.81;;;9.90;76.73
56241;BME280;42155;53.096;23.226;2023-04-15T09:36:12;99682.00;;;9.73;77.09
56241;BME280;42155;53.096;23.226;2023-04-15T09:38:13;99709.66;;;9.91;77.00
56241;BME280;42155;53.096;23.226;2023-04-15T09:40:13;99695.56;;;9.90;77.06
56241;BME280;42155;53.096;23.226;2023-04-15T09:42:14;99706.03;;;9.92;76.81
56241;BME280;42155;53.096;23.226;2023-04-15T09:44:24;99665.16;;;9.62;77.08
56241;BME280;42155;53.096;23.226;2023-04-15T09:46:43;99708.44;;;9.95;77.53
56241;BME280;42155;53.096;23.226;2023-04-15T09:48:44;99704.56;;;9.99;77.14
56241;BME280;42155;53.096;23.226;2023-04-15T09:50:44;99676.09;;;9.69;76.72
56241;BME280;42155;53.096;23.226;2023-04-15T09:52:45;99723.13;;;9.88;77.27
56241;BME280;42155;53.096;23.226;2023-04-15T09:54:46;99711.22;;;9.82;77.18
56241;BME280;42155;53.096;23.226;2023-04-15T09:56:46;99723.97;;;9.88;77.01
56241;BME280;42155;53.096;23.226;2023-04-15T09:58:55;99716.75;;;9.90;76.61
56241;BME280;42155;53.096;23.226;2023-04-15T10:00:57;99717.84;;;9.88;77.02
56241;BME280;42155;53.096;23.226;2023-04-15T10:02:57;99725.09;;;9.86;77.67
56241;BME280;42155;53.096;23.226;2023-04-15T10:04:58;99736.44;;;9.77;77.33
56241;BME280;42155;53.096;23.226;2023-04-15T10:07:00;99723.44;;;9.62;77.79
56241;BME280;42155;53.096;23.226;2023-04-15T10:09:01;99726.94;;;9.63;78.28
56241;BME280;42155;53.096;23.226;2023-04-15T10:11:02;99741.88;;;9.64;78.02
56241;BME280;42155;53.096;23.226;2023-04-15T10:13:04;99721.41;;;9.55;78.41
56241;BME280;42155;53.096;23.226;2023-04-15T10:15:10;99709.97;;;9.54;78.18
56241;BME280;42155;53.096;23.226;2023-04-15T10:17:14;99725.63;;;9.57;78.18
56241;BME280;42155;53.096;23.226;2023-04-15T10:19:19;99729.94;;;9.69;78.04
56241;BME280;42155;53.096;23.226;2023-04-15T10:21:22;99720.16;;;9.70;77.91
56241;BME280;42155;53.096;23.226;2023-04-15T10:23:22;99730.41;;;9.75;78.35
56241;BME280;42155;53.096;23.226;2023-04-15T10:25:23;99722.22;;;9.78;78.11
56241;BME280;42155;53.096;23.226;2023-04-15T10:27:26;99730.63;;;9.83;78.34
56241;BME280;42155;53.096;23.226;2023-04-15T10:29:26;99725.09;;;9.86;77.49
56241;BME280;42155;53.096;23.226;2023-04-15T10:31:27;99736.53;;;9.86;77.90
56241;BME280;42155;53.096;23.226;2023-04-15T10:33:28;99735.94;;;9.83;78.10
56241;BME280;42155;53.096;23.226;2023-04-15T10:35:31;99729.31;;;9.77;78.27